sensor_id;sensor_type;location;lat;lon;timestamp;P1;durP1;ratioP1;P2;durP2;ratioP2
67076;SDS011;53991;46.364;17.008;2022-08-23T00:02:45;0.85;;;0.73;;
67076;SDS011;53991;46.364;17.008;2022-08-23T00:05:47;1.52;;;0.80;;
67076;SDS011;53991;46.364;17.008;2022-08-23T00:11:54;0.93;;;0.82;;
67076;SDS011;53991;46.364;17.008;2022-08-23T00:15:09;4.95;;;0.80;;
67076;SDS011;53991;46.364;17.008;2022-08-23T00:18:13;6.25;;;0.90;;
67076;SDS011;53991;46.364;17.008;2022-08-23T00:24:17;1.53;;;0.53;;
67076;SDS011;53991;46.364;17.008;2022-08-23T00:27:20;1.00;;;0.60;;
67076;SDS011;53991;46.364;17.008;2022-08-23T00:30:22;0.73;;;0.60;;
67076;SDS011;53991;46.364;17.008;2022-08-23T00:33:25;1.13;;;0.70;;
67076;SDS011;53991;46.364;17.008;2022-08-23T00:39:29;2.28;;;0.73;;
67076;SDS011;53991;46.364;17.008;2022-08-23T00:42:36;2.15;;;1.17;;
67076;SDS011;53991;46.364;17.008;2022-08-23T00:45:51;2.25;;;1.00;;
67076;SDS011;53991;46.364;17.008;2022-08-23T00:48:56;0.52;;;0.52;;
67076;SDS011;53991;46.364;17.008;2022-08-23T00:52:03;1.67;;;0.95;;
67076;SDS011;53991;46.364;17.008;2022-08-23T00:55:18;0.85;;;0.85;;
67076;SDS011;53991;46.364;17.008;2022-08-23T00:58:21;3.63;;;1.10;;
67076;SDS011;53991;46.364;17.008;2022-08-23T01:04:27;0.60;;;0.60;;
67076;SDS011;53991;46.364;17.008;2022-08-23T01:07:35;1.20;;;0.75;;
67076;SDS011;53991;46.364;17.008;2022-08-23T01:10:52;0.90;;;0.90;;
67076;SDS011;53991;46.364;17.008;2022-08-23T01:14:05;2.45;;;1.10;;
67076;SDS011;53991;46.364;17.008;2022-08-23T01:17:13;2.55;;;0.90;;
67076;SDS011;53991;46.364;17.008;2022-08-23T01:20:21;2.55;;;0.80;;
67076;SDS011;53991;46.364;17.008;2022-08-23T01:23:44;1.42;;;0.57;;
67076;SDS011;53991;46.364;17.008;2022-08-23T01:26:49;0.55;;;0.50;;
67076;SDS011;53991;46.364;17.008;2022-08-23T01:32:55;2.07;;;0.80;;
67076;SDS011;53991;46.364;17.008;2022-08-23T01:35:59;0.70;;;0.63;;
67076;SDS011;53991;46.364;17.008;2022-08-23T01:39:04;1.45;;;0.70;;
67076;SDS011;53991;46.364;17.008;2022-08-23T01:45:12;0.57;;;0.40;;
67076;SDS011;53991;46.364;17.008;2022-08-23T01:48:15;1.48;;;0.98;;
67076;SDS011;53991;46.364;17.008;2022-08-23T01:51:18;3.03;;;0.65;;
67076;SDS011;53991;46.364;17.008;2022-08-23T10:17:25;2.20;;;0.20;;
67076;SDS011;53991;46.364;17.008;2022-08-23T10:20:36;3.90;;;0.20;;
67076;SDS011;53991;46.364;17.008;2022-08-23T10:33:15;0.83;;;0.67;;
67076;SDS011;53991;46.364;17.008;2022-08-23T10:36:26;0.90;;;0.90;;
67076;SDS011;53991;46.364;17.008;2022-08-23T10:52:18;1.30;;;0.40;;
67076;SDS011;53991;46.364;17.008;2022-08-23T10:55:24;0.30;;;0.30;;
67076;SDS011;53991;46.364;17.008;2022-08-23T11:01:52;0.40;;;0.30;;
67076;SDS011;53991;46.364;17.008;2022-08-23T11:05:25;0.20;;;0.10;;
67076;SDS011;53991;46.364;17.008;2022-08-23T11:08:32;1.08;;;0.30;;
67076;SDS011;53991;46.364;17.008;2022-08-23T11:30:45;1.17;;;0.38;;
67076;SDS011;53991;46.364;17.008;2022-08-23T11:33:49;0.95;;;0.40;;
67076;SDS011;53991;46.364;17.008;2022-08-23T11:37:47;0.40;;;0.40;;
67076;SDS011;53991;46.364;17.008;2022-08-23T11:44:32;2.83;;;0.50;;
67076;SDS011;53991;46.364;17.008;2022-08-23T11:47:39;3.60;;;0.40;;
67076;SDS011;53991;46.364;17.008;2022-08-23T11:50:56;0.40;;;0.40;;
67076;SDS011;53991;46.364;17.008;2022-08-23T11:54:13;4.00;;;0.70;;
67076;SDS011;53991;46.364;17.008;2022-08-23T11:57:18;1.08;;;0.52;;
67076;SDS011;53991;46.364;17.008;2022-08-23T12:03:34;1.98;;;0.70;;
67076;SDS011;53991;46.364;17.008;2022-08-23T12:06:47;0.70;;;0.57;;
67076;SDS011;53991;46.364;17.008;2022-08-23T12:09:54;1.30;;;0.85;;
67076;SDS011;53991;46.364;17.008;2022-08-23T12:19:29;1.30;;;0.70;;
67076;SDS011;53991;46.364;17.008;2022-08-23T12:26:21;1.02;;;0.60;;
67076;SDS011;53991;46.364;17.008;2022-08-23T12:33:52;1.65;;;0.57;;
67076;SDS011;53991;46.364;17.008;2022-08-23T12:39:37;0.82;;;0.70;;
67076;SDS011;53991;46.364;17.008;2022-08-23T12:42:47;0.73;;;0.73;;
67076;SDS011;53991;46.364;17.008;2022-08-23T12:45:54;0.73;;;0.45;;
67076;SDS011;53991;46.364;17.008;2022-08-23T12:48:58;1.60;;;0.65;;
67076;SDS011;53991;46.364;17.008;2022-08-23T12:52:04;1.88;;;0.60;;
67076;SDS011;53991;46.364;17.008;2022-08-23T12:55:11;1.38;;;0.63;;
67076;SDS011;53991;46.364;17.008;2022-08-23T12:58:25;0.50;;;0.50;;
67076;SDS011;53991;46.364;17.008;2022-08-23T13:01:34;1.30;;;0.63;;
67076;SDS011;53991;46.364;17.008;2022-08-23T13:04:39;3.70;;;0.70;;
67076;SDS011;53991;46.364;17.008;2022-08-23T13:07:42;4.43;;;0.68;;
67076;SDS011;53991;46.364;17.008;2022-08-23T13:10:45;1.88;;;0.90;;
67076;SDS011;53991;46.364;17.008;2022-08-23T13:13:48;2.08;;;0.85;;
67076;SDS011;53991;46.364;17.008;2022-08-23T13:16:50;1.42;;;0.80;;
67076;SDS011;53991;46.364;17.008;2022-08-23T13:23:08;1.02;;;0.90;;
67076;SDS011;53991;46.364;17.008;2022-08-23T13:29:31;1.98;;;1.20;;
67076;SDS011;53991;46.364;17.008;2022-08-23T13:38:39;2.58;;;0.73;;
67076;SDS011;53991;46.364;17.008;2022-08-23T13:41:42;6.80;;;1.00;;
67076;SDS011;53991;46.364;17.008;2022-08-23T13:44:45;2.63;;;1.00;;
67076;SDS011;53991;46.364;17.008;2022-08-23T13:54:26;2.83;;;0.60;;
67076;SDS011;53991;46.364;17.008;2022-08-23T13:57:30;2.85;;;0.70;;
67076;SDS011;53991;46.364;17.008;2022-08-23T14:03:34;1.43;;;0.60;;
67076;SDS011;53991;46.364;17.008;2022-08-23T14:09:39;1.45;;;0.52;;
67076;SDS011;53991;46.364;17.008;2022-08-23T14:12:42;1.73;;;0.68;;
67076;SDS011;53991;46.364;17.008;2022-08-23T14:15:47;1.83;;;0.30;;
67076;SDS011;53991;46.364;17.008;2022-08-23T14:19:09;1.15;;;0.43;;
67076;SDS011;53991;46.364;17.008;2022-08-23T14:22:32;1.83;;;0.50;;
67076;SDS011;53991;46.364;17.008;2022-08-23T14:25:35;0.77;;;0.50;;
67076;SDS011;53991;46.364;17.008;2022-08-23T14:28:37;1.02;;;0.70;;
67076;SDS011;53991;46.364;17.008;2022-08-23T14:31:44;0.77;;;0.65;;
67076;SDS011;53991;46.364;17.008;2022-08-23T14:34:47;1.02;;;0.50;;
67076;SDS011;53991;46.364;17.008;2022-08-23T14:37:51;3.25;;;0.60;;
67076;SDS011;53991;46.364;17.008;2022-08-23T14:41:05;1.30;;;0.88;;
67076;SDS011;53991;46.364;17.008;2022-08-23T14:44:10;0.93;;;0.50;;
67076;SDS011;53991;46.364;17.008;2022-08-23T14:47:12;2.10;;;0.68;;
67076;SDS011;53991;46.364;17.008;2022-08-23T14:50:15;0.60;;;0.50;;
67076;SDS011;53991;46.364;17.008;2022-08-23T14:56:22;0.68;;;0.68;;
67076;SDS011;53991;46.364;17.008;2022-08-23T14:59:24;0.60;;;0.60;;
67076;SDS011;53991;46.364;17.008;2022-08-23T15:05:30;0.50;;;0.50;;
67076;SDS011;53991;46.364;17.008;2022-08-23T15:08:32;0.70;;;0.50;;
67076;SDS011;53991;46.364;17.008;2022-08-23T15:11:34;2.25;;;0.80;;
67076;SDS011;53991;46.364;17.008;2022-08-23T15:14:57;0.88;;;0.70;;
67076;SDS011;53991;46.364;17.008;2022-08-23T15:18:01;0.80;;;0.80;;
67076;SDS011;53991;46.364;17.008;2022-08-23T15:21:07;1.38;;;0.80;;
67076;SDS011;53991;46.364;17.008;2022-08-23T15:27:12;1.02;;;0.85;;
67076;SDS011;53991;46.364;17.008;2022-08-23T15:33:17;1.35;;;0.95;;
67076;SDS011;53991;46.364;17.008;2022-08-23T15:36:27;1.08;;;0.82;;
67076;SDS011;53991;46.364;17.008;2022-08-23T15:39:29;1.02;;;0.60;;
67076;SDS011;53991;46.364;17.008;2022-08-23T15:45:34;4.07;;;0.85;;
67076;SDS011;53991;46.364;17.008;2022-08-23T15:48:41;2.13;;;0.98;;
67076;SDS011;53991;46.364;17.008;2022-08-23T15:51:55;1.20;;;1.10;;
67076;SDS011;53991;46.364;17.008;2022-08-23T15:57:59;1.17;;;1.00;;
67076;SDS011;53991;46.364;17.008;2022-08-23T16:01:02;2.63;;;0.93;;
67076;SDS011;53991;46.364;17.008;2022-08-23T16:04:04;1.10;;;0.70;;
67076;SDS011;53991;46.364;17.008;2022-08-23T16:07:08;2.72;;;0.85;;
67076;SDS011;53991;46.364;17.008;2022-08-23T16:10:13;1.88;;;0.85;;
67076;SDS011;53991;46.364;17.008;2022-08-23T16:13:16;2.80;;;0.90;;
67076;SDS011;53991;46.364;17.008;2022-08-23T16:19:28;1.63;;;0.90;;
67076;SDS011;53991;46.364;17.008;2022-08-23T16:25:34;1.95;;;0.63;;
67076;SDS011;53991;46.364;17.008;2022-08-23T16:28:36;0.65;;;0.65;;
67076;SDS011;53991;46.364;17.008;2022-08-23T16:37:43;1.42;;;0.80;;
67076;SDS011;53991;46.364;17.008;2022-08-23T16:43:48;0.60;;;0.60;;
67076;SDS011;53991;46.364;17.008;2022-08-23T16:46:51;2.95;;;0.77;;
67076;SDS011;53991;46.364;17.008;2022-08-23T16:49:54;1.13;;;0.70;;
67076;SDS011;53991;46.364;17.008;2022-08-23T16:52:56;1.95;;;0.60;;
67076;SDS011;53991;46.364;17.008;2022-08-23T16:55:58;1.30;;;0.60;;
67076;SDS011;53991;46.364;17.008;2022-08-23T16:59:02;3.92;;;0.70;;
67076;SDS011;53991;46.364;17.008;2022-08-23T17:02:05;1.75;;;0.70;;
67076;SDS011;53991;46.364;17.008;2022-08-23T17:05:13;1.50;;;0.55;;
67076;SDS011;53991;46.364;17.008;2022-08-23T17:08:16;0.50;;;0.50;;
67076;SDS011;53991;46.364;17.008;2022-08-23T17:11:18;0.75;;;0.75;;
67076;SDS011;53991;46.364;17.008;2022-08-23T17:14:22;1.35;;;0.60;;
67076;SDS011;53991;46.364;17.008;2022-08-23T17:17:24;1.63;;;0.75;;
67076;SDS011;53991;46.364;17.008;2022-08-23T17:20:27;3.75;;;0.68;;
67076;SDS011;53991;46.364;17.008;2022-08-23T17:23:31;2.50;;;1.00;;
67076;SDS011;53991;46.364;17.008;2022-08-23T17:26:41;1.25;;;0.98;;
67076;SDS011;53991;46.364;17.008;2022-08-23T17:29:44;2.88;;;1.02;;
67076;SDS011;53991;46.364;17.008;2022-08-23T17:32:47;2.65;;;1.00;;
67076;SDS011;53991;46.364;17.008;2022-08-23T17:35:50;2.22;;;0.88;;
67076;SDS011;53991;46.364;17.008;2022-08-23T17:38:52;4.72;;;0.80;;
67076;SDS011;53991;46.364;17.008;2022-08-23T17:41:55;1.38;;;1.25;;
67076;SDS011;53991;46.364;17.008;2022-08-23T17:44:58;5.82;;;1.80;;
67076;SDS011;53991;46.364;17.008;2022-08-23T17:51:02;1.47;;;1.13;;
67076;SDS011;53991;46.364;17.008;2022-08-23T17:54:05;3.75;;;1.00;;
67076;SDS011;53991;46.364;17.008;2022-08-23T17:57:08;3.28;;;1.20;;
67076;SDS011;53991;46.364;17.008;2022-08-23T18:00:12;2.22;;;1.23;;
67076;SDS011;53991;46.364;17.008;2022-08-23T18:03:14;3.90;;;1.00;;
67076;SDS011;53991;46.364;17.008;2022-08-23T18:06:17;1.50;;;0.70;;
67076;SDS011;53991;46.364;17.008;2022-08-23T18:09:20;1.95;;;1.17;;
67076;SDS011;53991;46.364;17.008;2022-08-23T18:12:22;3.65;;;1.10;;
67076;SDS011;53991;46.364;17.008;2022-08-23T18:15:28;2.60;;;1.17;;
67076;SDS011;53991;46.364;17.008;2022-08-23T18:18:31;2.25;;;1.05;;
67076;SDS011;53991;46.364;17.008;2022-08-23T18:21:35;4.38;;;1.10;;
67076;SDS011;53991;46.364;17.008;2022-08-23T18:24:38;1.73;;;1.10;;
67076;SDS011;53991;46.364;17.008;2022-08-23T18:27:42;1.40;;;0.80;;
67076;SDS011;53991;46.364;17.008;2022-08-23T18:33:47;4.82;;;1.00;;
67076;SDS011;53991;46.364;17.008;2022-08-23T18:39:52;1.00;;;0.93;;
67076;SDS011;53991;46.364;17.008;2022-08-23T18:42:54;1.58;;;1.48;;
67076;SDS011;53991;46.364;17.008;2022-08-23T18:45:57;2.83;;;1.10;;
67076;SDS011;53991;46.364;17.008;2022-08-23T18:48:59;2.72;;;1.60;;
67076;SDS011;53991;46.364;17.008;2022-08-23T18:52:03;2.47;;;1.40;;
67076;SDS011;53991;46.364;17.008;2022-08-23T18:55:06;2.17;;;2.08;;
67076;SDS011;53991;46.364;17.008;2022-08-23T18:58:09;2.35;;;1.13;;
67076;SDS011;53991;46.364;17.008;2022-08-23T19:01:25;2.03;;;1.23;;
67076;SDS011;53991;46.364;17.008;2022-08-23T19:04:29;3.25;;;1.38;;
67076;SDS011;53991;46.364;17.008;2022-08-23T19:07:32;2.38;;;1.63;;
67076;SDS011;53991;46.364;17.008;2022-08-23T19:10:34;2.63;;;1.20;;
67076;SDS011;53991;46.364;17.008;2022-08-23T19:13:37;3.03;;;1.30;;
67076;SDS011;53991;46.364;17.008;2022-08-23T19:16:40;1.40;;;1.30;;
67076;SDS011;53991;46.364;17.008;2022-08-23T19:19:48;6.25;;;1.85;;
67076;SDS011;53991;46.364;17.008;2022-08-23T19:22:51;7.57;;;2.03;;
67076;SDS011;53991;46.364;17.008;2022-08-23T19:25:54;2.45;;;1.45;;
67076;SDS011;53991;46.364;17.008;2022-08-23T19:32:00;1.40;;;1.30;;
67076;SDS011;53991;46.364;17.008;2022-08-23T19:35:03;2.63;;;1.50;;
67076;SDS011;53991;46.364;17.008;2022-08-23T19:38:06;7.68;;;1.52;;
67076;SDS011;53991;46.364;17.008;2022-08-23T19:41:09;1.58;;;1.42;;
67076;SDS011;53991;46.364;17.008;2022-08-23T19:44:12;3.05;;;1.98;;
67076;SDS011;53991;46.364;17.008;2022-08-23T19:47:18;4.72;;;1.85;;
67076;SDS011;53991;46.364;17.008;2022-08-23T19:50:23;1.52;;;1.40;;
67076;SDS011;53991;46.364;17.008;2022-08-23T19:53:26;6.03;;;1.77;;
67076;SDS011;53991;46.364;17.008;2022-08-23T19:56:36;3.65;;;3.15;;
67076;SDS011;53991;46.364;17.008;2022-08-23T19:59:46;6.63;;;1.90;;
67076;SDS011;53991;46.364;17.008;2022-08-23T20:02:49;3.35;;;2.03;;
67076;SDS011;53991;46.364;17.008;2022-08-23T20:05:52;6.55;;;1.85;;
67076;SDS011;53991;46.364;17.008;2022-08-23T20:08:55;9.13;;;4.30;;
67076;SDS011;53991;46.364;17.008;2022-08-23T20:11:59;3.10;;;1.80;;
67076;SDS011;53991;46.364;17.008;2022-08-23T20:15:02;3.65;;;2.17;;
67076;SDS011;53991;46.364;17.008;2022-08-23T20:18:05;3.55;;;2.30;;
67076;SDS011;53991;46.364;17.008;2022-08-23T20:21:08;4.13;;;2.08;;
67076;SDS011;53991;46.364;17.008;2022-08-23T20:24:12;2.22;;;2.03;;
67076;SDS011;53991;46.364;17.008;2022-08-23T20:27:15;4.07;;;1.90;;
67076;SDS011;53991;46.364;17.008;2022-08-23T20:30:31;5.53;;;2.47;;
67076;SDS011;53991;46.364;17.008;2022-08-23T20:33:35;5.57;;;2.67;;
67076;SDS011;53991;46.364;17.008;2022-08-23T20:39:39;2.97;;;2.73;;
67076;SDS011;53991;46.364;17.008;2022-08-23T20:42:42;4.90;;;3.15;;
67076;SDS011;53991;46.364;17.008;2022-08-23T20:45:45;3.80;;;2.50;;
67076;SDS011;53991;46.364;17.008;2022-08-23T20:48:48;5.03;;;2.53;;
67076;SDS011;53991;46.364;17.008;2022-08-23T20:54:52;4.78;;;2.47;;
67076;SDS011;53991;46.364;17.008;2022-08-23T21:00:57;4.43;;;2.50;;
67076;SDS011;53991;46.364;17.008;2022-08-23T21:04:00;4.93;;;2.65;;
67076;SDS011;53991;46.364;17.008;2022-08-23T21:07:02;4.95;;;2.35;;
67076;SDS011;53991;46.364;17.008;2022-08-23T21:10:06;6.85;;;2.47;;
67076;SDS011;53991;46.364;17.008;2022-08-23T21:13:08;2.65;;;2.45;;
67076;SDS011;53991;46.364;17.008;2022-08-23T21:16:11;6.03;;;2.58;;
67076;SDS011;53991;46.364;17.008;2022-08-23T21:19:14;2.67;;;2.47;;
67076;SDS011;53991;46.364;17.008;2022-08-23T21:22:17;3.45;;;2.75;;
67076;SDS011;53991;46.364;17.008;2022-08-23T21:28:22;10.23;;;2.85;;
67076;SDS011;53991;46.364;17.008;2022-08-23T21:31:26;3.60;;;3.03;;
67076;SDS011;53991;46.364;17.008;2022-08-23T21:34:29;7.50;;;3.42;;
67076;SDS011;53991;46.364;17.008;2022-08-23T21:37:31;4.13;;;2.72;;
67076;SDS011;53991;46.364;17.008;2022-08-23T21:43:35;7.97;;;3.20;;
67076;SDS011;53991;46.364;17.008;2022-08-23T21:49:40;7.40;;;2.80;;
67076;SDS011;53991;46.364;17.008;2022-08-23T21:52:44;5.40;;;2.63;;
67076;SDS011;53991;46.364;17.008;2022-08-23T21:55:57;3.50;;;2.45;;
67076;SDS011;53991;46.364;17.008;2022-08-23T22:02:02;3.60;;;3.10;;
67076;SDS011;53991;46.364;17.008;2022-08-23T22:05:06;3.33;;;2.90;;
67076;SDS011;53991;46.364;17.008;2022-08-23T22:08:09;3.13;;;2.58;;
67076;SDS011;53991;46.364;17.008;2022-08-23T22:11:14;7.00;;;2.78;;
67076;SDS011;53991;46.364;17.008;2022-08-23T22:17:21;6.50;;;3.15;;
67076;SDS011;53991;46.364;17.008;2022-08-23T22:23:27;3.40;;;2.65;;
67076;SDS011;53991;46.364;17.008;2022-08-23T22:26:30;3.03;;;2.75;;
67076;SDS011;53991;46.364;17.008;2022-08-23T22:29:33;2.65;;;2.45;;
67076;SDS011;53991;46.364;17.008;2022-08-23T22:32:35;6.60;;;2.92;;
67076;SDS011;53991;46.364;17.008;2022-08-23T22:38:40;9.18;;;4.60;;
67076;SDS011;53991;46.364;17.008;2022-08-23T22:44:44;2.50;;;2.30;;
67076;SDS011;53991;46.364;17.008;2022-08-23T22:47:46;6.57;;;2.35;;
67076;SDS011;53991;46.364;17.008;2022-08-23T22:53:53;3.35;;;2.38;;
67076;SDS011;53991;46.364;17.008;2022-08-23T22:56:57;5.30;;;2.60;;
67076;SDS011;53991;46.364;17.008;2022-08-23T23:03:01;2.83;;;2.63;;
67076;SDS011;53991;46.364;17.008;2022-08-23T23:06:05;4.05;;;2.30;;
67076;SDS011;53991;46.364;17.008;2022-08-23T23:09:07;4.63;;;2.70;;
67076;SDS011;53991;46.364;17.008;2022-08-23T23:12:10;3.45;;;2.50;;
67076;SDS011;53991;46.364;17.008;2022-08-23T23:18:17;3.55;;;3.25;;
67076;SDS011;53991;46.364;17.008;2022-08-23T23:21:19;2.65;;;2.33;;
67076;SDS011;53991;46.364;17.008;2022-08-23T23:27:31;6.13;;;2.70;;
67076;SDS011;53991;46.364;17.008;2022-08-23T23:33:36;3.45;;;2.83;;
67076;SDS011;53991;46.364;17.008;2022-08-23T23:39:41;6.10;;;2.80;;
67076;SDS011;53991;46.364;17.008;2022-08-23T23:45:45;2.60;;;2.40;;
67076;SDS011;53991;46.364;17.008;2022-08-23T23:51:50;6.32;;;2.80;;
67076;SDS011;53991;46.364;17.008;2022-08-23T23:57:55;7.25;;;3.13;;
